Terminal Aerodrome Forecast
Issued by NWS Upton, NY

Home | Current Version | Previous Version | Text Only | Print | Product List | Glossary On
Versions: 1 2 3 4 5 6 7 8 9 10 11 12 13 14 15 16 17 18 19 20 21 22 23 24 25 26 27 28 29 30 31
000
FTUS41 KOKX 291746
TAFISP
TAF
KISP 291746Z 2918/3018 10016G22KT P6SM FEW050 BKN080
     FM292300 11012KT P6SM -SHRA OVC050
     FM300100 09008KT P6SM -SHRA OVC050
     FM300300 05007KT P6SM VCSH FEW020 OVC045
     FM300800 03004KT P6SM BKN050
     FM301300 04008KT P6SM FEW060 SCT250
     FM301700 08008KT P6SM SCT250=

USA.gov is the U.S. government's official web portal to all federal, state and local government web resources and services.